sensor_id;sensor_type;location;lat;lon;timestamp;P1;durP1;ratioP1;P2;durP2;ratioP2
75016;SDS011;63577;39.766;2.720;2024-03-23T00:55:01;15.60;;;7.70;;
75016;SDS011;63577;39.766;2.720;2024-03-23T00:57:27;16.20;;;7.30;;
75016;SDS011;63577;39.766;2.720;2024-03-23T00:59:52;16.40;;;8.60;;
75016;SDS011;63577;39.766;2.720;2024-03-23T01:02:18;14.90;;;7.60;;
75016;SDS011;63577;39.766;2.720;2024-03-23T01:04:44;18.40;;;7.10;;
75016;SDS011;63577;39.766;2.720;2024-03-23T01:07:09;12.90;;;6.70;;
75016;SDS011;63577;39.766;2.720;2024-03-23T01:09:34;14.20;;;6.90;;
75016;SDS011;63577;39.766;2.720;2024-03-23T01:12:00;12.80;;;6.40;;
75016;SDS011;63577;39.766;2.720;2024-03-23T01:14:25;12.80;;;6.00;;
75016;SDS011;63577;39.766;2.720;2024-03-23T01:16:50;13.10;;;6.30;;
75016;SDS011;63577;39.766;2.720;2024-03-23T01:19:16;12.50;;;6.00;;
75016;SDS011;63577;39.766;2.720;2024-03-23T01:21:41;14.60;;;7.10;;
75016;SDS011;63577;39.766;2.720;2024-03-23T01:24:08;13.20;;;6.50;;
75016;SDS011;63577;39.766;2.720;2024-03-23T01:26:35;14.70;;;6.50;;
75016;SDS011;63577;39.766;2.720;2024-03-23T01:29:02;13.50;;;6.50;;
75016;SDS011;63577;39.766;2.720;2024-03-23T01:31:27;12.10;;;6.00;;
75016;SDS011;63577;39.766;2.720;2024-03-23T01:33:53;13.30;;;6.10;;
75016;SDS011;63577;39.766;2.720;2024-03-23T01:36:18;13.20;;;6.10;;
75016;SDS011;63577;39.766;2.720;2024-03-23T01:38:45;13.50;;;6.50;;
75016;SDS011;63577;39.766;2.720;2024-03-23T01:41:10;16.50;;;7.70;;
75016;SDS011;63577;39.766;2.720;2024-03-23T01:43:35;18.30;;;8.50;;
75016;SDS011;63577;39.766;2.720;2024-03-23T01:46:00;21.40;;;9.40;;
75016;SDS011;63577;39.766;2.720;2024-03-23T01:48:26;20.60;;;9.60;;
75016;SDS011;63577;39.766;2.720;2024-03-23T01:50:51;18.20;;;8.20;;
75016;SDS011;63577;39.766;2.720;2024-03-23T01:53:17;16.10;;;7.40;;
75016;SDS011;63577;39.766;2.720;2024-03-23T01:55:44;14.50;;;6.90;;
75016;SDS011;63577;39.766;2.720;2024-03-23T01:58:10;11.90;;;6.40;;
75016;SDS011;63577;39.766;2.720;2024-03-23T02:00:35;15.40;;;6.50;;
75016;SDS011;63577;39.766;2.720;2024-03-23T02:03:00;15.20;;;6.10;;
75016;SDS011;63577;39.766;2.720;2024-03-23T02:05:26;11.20;;;5.20;;
75016;SDS011;63577;39.766;2.720;2024-03-23T02:07:51;11.90;;;4.90;;
75016;SDS011;63577;39.766;2.720;2024-03-23T02:10:16;12.60;;;5.10;;
75016;SDS011;63577;39.766;2.720;2024-03-23T02:12:42;11.80;;;4.30;;
75016;SDS011;63577;39.766;2.720;2024-03-23T02:15:07;12.50;;;4.80;;
75016;SDS011;63577;39.766;2.720;2024-03-23T02:17:36;11.30;;;4.60;;
75016;SDS011;63577;39.766;2.720;2024-03-23T02:20:02;10.70;;;4.70;;
75016;SDS011;63577;39.766;2.720;2024-03-23T02:22:37;10.00;;;4.50;;
75016;SDS011;63577;39.766;2.720;2024-03-23T02:25:04;9.90;;;4.30;;
75016;SDS011;63577;39.766;2.720;2024-03-23T02:27:29;12.00;;;5.30;;
75016;SDS011;63577;39.766;2.720;2024-03-23T02:29:55;12.70;;;4.90;;
75016;SDS011;63577;39.766;2.720;2024-03-23T02:32:20;12.20;;;5.50;;
75016;SDS011;63577;39.766;2.720;2024-03-23T02:34:45;13.40;;;6.70;;
75016;SDS011;63577;39.766;2.720;2024-03-23T02:37:11;13.90;;;6.80;;
75016;SDS011;63577;39.766;2.720;2024-03-23T02:39:37;13.00;;;5.40;;
75016;SDS011;63577;39.766;2.720;2024-03-23T02:42:02;12.30;;;5.90;;
75016;SDS011;63577;39.766;2.720;2024-03-23T02:44:27;13.30;;;5.60;;
75016;SDS011;63577;39.766;2.720;2024-03-23T02:46:53;12.40;;;5.50;;
75016;SDS011;63577;39.766;2.720;2024-03-23T02:49:18;10.70;;;5.10;;
75016;SDS011;63577;39.766;2.720;2024-03-23T02:51:43;9.50;;;5.10;;
75016;SDS011;63577;39.766;2.720;2024-03-23T02:54:10;12.70;;;5.50;;
75016;SDS011;63577;39.766;2.720;2024-03-23T02:56:36;11.00;;;5.20;;
75016;SDS011;63577;39.766;2.720;2024-03-23T02:59:01;10.10;;;5.30;;
75016;SDS011;63577;39.766;2.720;2024-03-23T03:01:26;9.90;;;4.70;;
75016;SDS011;63577;39.766;2.720;2024-03-23T03:03:52;10.80;;;4.60;;
75016;SDS011;63577;39.766;2.720;2024-03-23T03:06:26;12.80;;;5.10;;
75016;SDS011;63577;39.766;2.720;2024-03-23T03:08:51;10.30;;;4.60;;
75016;SDS011;63577;39.766;2.720;2024-03-23T03:11:17;12.10;;;4.90;;
75016;SDS011;63577;39.766;2.720;2024-03-23T03:13:42;10.20;;;4.50;;
75016;SDS011;63577;39.766;2.720;2024-03-23T03:16:11;10.80;;;5.00;;
75016;SDS011;63577;39.766;2.720;2024-03-23T03:18:36;12.90;;;5.00;;
75016;SDS011;63577;39.766;2.720;2024-03-23T03:21:01;9.20;;;4.80;;
75016;SDS011;63577;39.766;2.720;2024-03-23T03:23:27;11.40;;;4.20;;
75016;SDS011;63577;39.766;2.720;2024-03-23T03:25:53;11.30;;;4.00;;
75016;SDS011;63577;39.766;2.720;2024-03-23T03:28:19;10.00;;;4.30;;
75016;SDS011;63577;39.766;2.720;2024-03-23T03:30:45;10.80;;;3.60;;
75016;SDS011;63577;39.766;2.720;2024-03-23T03:33:11;12.20;;;4.40;;
75016;SDS011;63577;39.766;2.720;2024-03-23T03:35:36;10.20;;;3.60;;
75016;SDS011;63577;39.766;2.720;2024-03-23T03:38:02;10.80;;;3.70;;
75016;SDS011;63577;39.766;2.720;2024-03-23T03:40:28;9.40;;;3.50;;
75016;SDS011;63577;39.766;2.720;2024-03-23T03:42:53;12.10;;;3.60;;
75016;SDS011;63577;39.766;2.720;2024-03-23T03:45:19;7.60;;;3.60;;
75016;SDS011;63577;39.766;2.720;2024-03-23T03:47:44;11.70;;;3.90;;
75016;SDS011;63577;39.766;2.720;2024-03-23T03:50:10;12.30;;;4.00;;
75016;SDS011;63577;39.766;2.720;2024-03-23T03:52:35;10.20;;;3.70;;
75016;SDS011;63577;39.766;2.720;2024-03-23T03:55:01;9.20;;;3.30;;
75016;SDS011;63577;39.766;2.720;2024-03-23T03:57:30;7.40;;;3.30;;
75016;SDS011;63577;39.766;2.720;2024-03-23T03:59:56;10.40;;;3.80;;
75016;SDS011;63577;39.766;2.720;2024-03-23T04:02:21;8.70;;;3.50;;
75016;SDS011;63577;39.766;2.720;2024-03-23T04:04:46;9.50;;;3.40;;
75016;SDS011;63577;39.766;2.720;2024-03-23T04:07:12;12.90;;;3.20;;
75016;SDS011;63577;39.766;2.720;2024-03-23T04:09:38;10.20;;;3.50;;
75016;SDS011;63577;39.766;2.720;2024-03-23T04:12:03;9.60;;;3.40;;
75016;SDS011;63577;39.766;2.720;2024-03-23T04:14:29;7.60;;;3.40;;
75016;SDS011;63577;39.766;2.720;2024-03-23T04:16:54;8.60;;;3.50;;
75016;SDS011;63577;39.766;2.720;2024-03-23T04:19:20;9.10;;;4.40;;
75016;SDS011;63577;39.766;2.720;2024-03-23T04:21:46;10.70;;;4.40;;
75016;SDS011;63577;39.766;2.720;2024-03-23T04:24:11;10.80;;;4.00;;
75016;SDS011;63577;39.766;2.720;2024-03-23T04:26:42;10.50;;;4.00;;
75016;SDS011;63577;39.766;2.720;2024-03-23T04:29:08;12.90;;;4.20;;
75016;SDS011;63577;39.766;2.720;2024-03-23T04:31:33;9.90;;;3.70;;
75016;SDS011;63577;39.766;2.720;2024-03-23T04:34:02;8.20;;;4.10;;
75016;SDS011;63577;39.766;2.720;2024-03-23T04:36:28;8.40;;;4.20;;
75016;SDS011;63577;39.766;2.720;2024-03-23T04:38:54;9.00;;;3.60;;
75016;SDS011;63577;39.766;2.720;2024-03-23T04:41:19;10.50;;;3.60;;
75016;SDS011;63577;39.766;2.720;2024-03-23T04:43:44;8.20;;;3.50;;
75016;SDS011;63577;39.766;2.720;2024-03-23T04:46:10;9.60;;;3.10;;
75016;SDS011;63577;39.766;2.720;2024-03-23T04:48:35;9.50;;;3.30;;
75016;SDS011;63577;39.766;2.720;2024-03-23T04:51:01;9.10;;;3.80;;
75016;SDS011;63577;39.766;2.720;2024-03-23T04:53:26;10.60;;;3.60;;
75016;SDS011;63577;39.766;2.720;2024-03-23T04:55:55;10.60;;;3.80;;
75016;SDS011;63577;39.766;2.720;2024-03-23T04:58:21;11.80;;;3.20;;
75016;SDS011;63577;39.766;2.720;2024-03-23T05:00:46;12.80;;;3.30;;
75016;SDS011;63577;39.766;2.720;2024-03-23T05:03:12;7.80;;;3.30;;
75016;SDS011;63577;39.766;2.720;2024-03-23T05:05:37;7.60;;;2.90;;
75016;SDS011;63577;39.766;2.720;2024-03-23T05:08:02;8.20;;;2.60;;
75016;SDS011;63577;39.766;2.720;2024-03-23T05:10:29;9.70;;;3.50;;
75016;SDS011;63577;39.766;2.720;2024-03-23T05:12:54;11.80;;;3.20;;
75016;SDS011;63577;39.766;2.720;2024-03-23T05:15:20;8.90;;;3.10;;
75016;SDS011;63577;39.766;2.720;2024-03-23T05:17:45;10.80;;;3.30;;
75016;SDS011;63577;39.766;2.720;2024-03-23T05:20:11;8.60;;;2.90;;
75016;SDS011;63577;39.766;2.720;2024-03-23T05:22:37;9.40;;;3.00;;
75016;SDS011;63577;39.766;2.720;2024-03-23T05:25:03;8.70;;;2.90;;
75016;SDS011;63577;39.766;2.720;2024-03-23T05:27:32;11.10;;;3.20;;
75016;SDS011;63577;39.766;2.720;2024-03-23T05:29:58;10.30;;;3.10;;
75016;SDS011;63577;39.766;2.720;2024-03-23T05:32:23;13.20;;;3.60;;
75016;SDS011;63577;39.766;2.720;2024-03-23T05:34:49;11.10;;;3.20;;
75016;SDS011;63577;39.766;2.720;2024-03-23T05:37:16;6.70;;;2.90;;
75016;SDS011;63577;39.766;2.720;2024-03-23T05:39:42;9.50;;;3.50;;
75016;SDS011;63577;39.766;2.720;2024-03-23T05:42:07;10.80;;;3.70;;
75016;SDS011;63577;39.766;2.720;2024-03-23T05:44:33;8.60;;;3.60;;
75016;SDS011;63577;39.766;2.720;2024-03-23T05:46:58;8.20;;;3.90;;
75016;SDS011;63577;39.766;2.720;2024-03-23T05:49:24;9.60;;;3.50;;
75016;SDS011;63577;39.766;2.720;2024-03-23T05:51:50;7.90;;;3.30;;
75016;SDS011;63577;39.766;2.720;2024-03-23T05:54:15;10.20;;;4.00;;
75016;SDS011;63577;39.766;2.720;2024-03-23T05:56:40;11.60;;;3.90;;
75016;SDS011;63577;39.766;2.720;2024-03-23T05:59:06;9.90;;;3.40;;
75016;SDS011;63577;39.766;2.720;2024-03-23T06:01:31;11.00;;;3.90;;
75016;SDS011;63577;39.766;2.720;2024-03-23T06:03:57;9.50;;;4.20;;
75016;SDS011;63577;39.766;2.720;2024-03-23T06:06:23;10.10;;;3.50;;
75016;SDS011;63577;39.766;2.720;2024-03-23T06:08:49;13.20;;;3.70;;
75016;SDS011;63577;39.766;2.720;2024-03-23T06:11:14;9.30;;;3.70;;
75016;SDS011;63577;39.766;2.720;2024-03-23T06:13:39;10.90;;;3.70;;
75016;SDS011;63577;39.766;2.720;2024-03-23T06:16:05;8.40;;;3.50;;
75016;SDS011;63577;39.766;2.720;2024-03-23T06:18:30;10.30;;;3.80;;
75016;SDS011;63577;39.766;2.720;2024-03-23T06:20:56;9.40;;;3.80;;
75016;SDS011;63577;39.766;2.720;2024-03-23T06:23:22;11.70;;;3.80;;
75016;SDS011;63577;39.766;2.720;2024-03-23T06:25:47;10.10;;;5.00;;
75016;SDS011;63577;39.766;2.720;2024-03-23T06:28:13;14.10;;;4.80;;
75016;SDS011;63577;39.766;2.720;2024-03-23T06:30:39;13.20;;;4.40;;
75016;SDS011;63577;39.766;2.720;2024-03-23T06:33:04;11.50;;;4.30;;
75016;SDS011;63577;39.766;2.720;2024-03-23T06:35:31;12.50;;;5.50;;
75016;SDS011;63577;39.766;2.720;2024-03-23T06:37:56;12.20;;;4.90;;
75016;SDS011;63577;39.766;2.720;2024-03-23T06:40:23;15.50;;;5.90;;
75016;SDS011;63577;39.766;2.720;2024-03-23T06:42:48;15.90;;;5.30;;
75016;SDS011;63577;39.766;2.720;2024-03-23T06:45:14;11.90;;;5.10;;
75016;SDS011;63577;39.766;2.720;2024-03-23T06:47:39;13.50;;;5.30;;
75016;SDS011;63577;39.766;2.720;2024-03-23T06:50:05;13.30;;;5.50;;
75016;SDS011;63577;39.766;2.720;2024-03-23T06:52:30;10.40;;;5.10;;
75016;SDS011;63577;39.766;2.720;2024-03-23T06:54:56;12.20;;;5.00;;
75016;SDS011;63577;39.766;2.720;2024-03-23T06:57:22;10.60;;;4.80;;
75016;SDS011;63577;39.766;2.720;2024-03-23T06:59:47;11.00;;;4.70;;
75016;SDS011;63577;39.766;2.720;2024-03-23T07:02:12;11.60;;;4.60;;
75016;SDS011;63577;39.766;2.720;2024-03-23T07:04:38;12.50;;;5.30;;
75016;SDS011;63577;39.766;2.720;2024-03-23T07:07:04;13.00;;;5.10;;
75016;SDS011;63577;39.766;2.720;2024-03-23T07:09:30;12.70;;;5.20;;
75016;SDS011;63577;39.766;2.720;2024-03-23T07:11:58;12.00;;;5.00;;
75016;SDS011;63577;39.766;2.720;2024-03-23T07:14:23;11.50;;;5.40;;
75016;SDS011;63577;39.766;2.720;2024-03-23T07:16:49;10.00;;;4.90;;
75016;SDS011;63577;39.766;2.720;2024-03-23T07:19:17;11.10;;;5.00;;
75016;SDS011;63577;39.766;2.720;2024-03-23T07:21:43;10.90;;;4.70;;
75016;SDS011;63577;39.766;2.720;2024-03-23T07:24:09;9.70;;;4.30;;
75016;SDS011;63577;39.766;2.720;2024-03-23T07:26:34;9.90;;;4.00;;
75016;SDS011;63577;39.766;2.720;2024-03-23T07:29:00;13.80;;;5.00;;
75016;SDS011;63577;39.766;2.720;2024-03-23T07:31:25;16.80;;;6.30;;
75016;SDS011;63577;39.766;2.720;2024-03-23T07:33:50;17.80;;;6.30;;
75016;SDS011;63577;39.766;2.720;2024-03-23T07:36:16;14.10;;;6.50;;
75016;SDS011;63577;39.766;2.720;2024-03-23T07:38:41;13.60;;;6.00;;
75016;SDS011;63577;39.766;2.720;2024-03-23T07:41:10;13.50;;;5.80;;
75016;SDS011;63577;39.766;2.720;2024-03-23T07:43:39;16.90;;;6.70;;
75016;SDS011;63577;39.766;2.720;2024-03-23T07:46:08;11.60;;;5.90;;
75016;SDS011;63577;39.766;2.720;2024-03-23T07:48:33;13.80;;;6.40;;
75016;SDS011;63577;39.766;2.720;2024-03-23T07:51:16;15.70;;;5.80;;
75016;SDS011;63577;39.766;2.720;2024-03-23T07:56:07;17.40;;;7.00;;
75016;SDS011;63577;39.766;2.720;2024-03-23T07:58:33;18.00;;;8.00;;
75016;SDS011;63577;39.766;2.720;2024-03-23T08:01:06;17.50;;;8.30;;
75016;SDS011;63577;39.766;2.720;2024-03-23T08:03:35;19.20;;;7.80;;
75016;SDS011;63577;39.766;2.720;2024-03-23T08:06:10;17.60;;;8.80;;
75016;SDS011;63577;39.766;2.720;2024-03-23T08:08:36;16.30;;;7.30;;
75016;SDS011;63577;39.766;2.720;2024-03-23T08:11:01;13.90;;;5.80;;
75016;SDS011;63577;39.766;2.720;2024-03-23T08:13:28;12.60;;;5.20;;
75016;SDS011;63577;39.766;2.720;2024-03-23T08:16:00;11.30;;;5.00;;
75016;SDS011;63577;39.766;2.720;2024-03-23T08:18:25;15.10;;;5.50;;
75016;SDS011;63577;39.766;2.720;2024-03-23T08:23:25;15.00;;;6.30;;
75016;SDS011;63577;39.766;2.720;2024-03-23T08:25:51;14.90;;;6.70;;
75016;SDS011;63577;39.766;2.720;2024-03-23T08:28:17;17.30;;;7.00;;
75016;SDS011;63577;39.766;2.720;2024-03-23T08:30:42;17.70;;;7.80;;
75016;SDS011;63577;39.766;2.720;2024-03-23T08:33:08;15.80;;;6.50;;
75016;SDS011;63577;39.766;2.720;2024-03-23T08:35:33;14.60;;;6.60;;
75016;SDS011;63577;39.766;2.720;2024-03-23T08:38:00;14.90;;;7.00;;
75016;SDS011;63577;39.766;2.720;2024-03-23T08:40:25;16.40;;;7.10;;
75016;SDS011;63577;39.766;2.720;2024-03-23T08:42:50;16.30;;;8.20;;
75016;SDS011;63577;39.766;2.720;2024-03-23T08:45:16;21.10;;;7.20;;
75016;SDS011;63577;39.766;2.720;2024-03-23T08:47:41;17.10;;;7.90;;
75016;SDS011;63577;39.766;2.720;2024-03-23T08:50:07;15.70;;;7.30;;
75016;SDS011;63577;39.766;2.720;2024-03-23T08:52:32;23.70;;;7.90;;
75016;SDS011;63577;39.766;2.720;2024-03-23T08:54:58;14.60;;;7.30;;
75016;SDS011;63577;39.766;2.720;2024-03-23T08:57:23;19.20;;;7.80;;
75016;SDS011;63577;39.766;2.720;2024-03-23T08:59:49;17.50;;;7.90;;
75016;SDS011;63577;39.766;2.720;2024-03-23T09:02:14;18.30;;;7.80;;
75016;SDS011;63577;39.766;2.720;2024-03-23T09:04:40;16.20;;;6.80;;
75016;SDS011;63577;39.766;2.720;2024-03-23T09:07:05;13.70;;;6.20;;
75016;SDS011;63577;39.766;2.720;2024-03-23T09:09:31;13.10;;;6.20;;
75016;SDS011;63577;39.766;2.720;2024-03-23T09:11:56;12.30;;;5.60;;
75016;SDS011;63577;39.766;2.720;2024-03-23T09:14:22;12.30;;;5.70;;
75016;SDS011;63577;39.766;2.720;2024-03-23T09:16:49;12.80;;;5.70;;
75016;SDS011;63577;39.766;2.720;2024-03-23T09:19:15;14.70;;;6.30;;
75016;SDS011;63577;39.766;2.720;2024-03-23T09:21:40;12.80;;;6.10;;
75016;SDS011;63577;39.766;2.720;2024-03-23T09:24:06;12.80;;;6.70;;
75016;SDS011;63577;39.766;2.720;2024-03-23T09:26:31;13.30;;;6.60;;
75016;SDS011;63577;39.766;2.720;2024-03-23T09:28:57;12.40;;;6.50;;
75016;SDS011;63577;39.766;2.720;2024-03-23T09:31:22;11.90;;;6.00;;
75016;SDS011;63577;39.766;2.720;2024-03-23T09:33:48;15.70;;;7.50;;
75016;SDS011;63577;39.766;2.720;2024-03-23T09:36:13;15.90;;;6.20;;
75016;SDS011;63577;39.766;2.720;2024-03-23T09:38:39;13.30;;;6.20;;
75016;SDS011;63577;39.766;2.720;2024-03-23T09:41:09;16.90;;;7.80;;
75016;SDS011;63577;39.766;2.720;2024-03-23T09:43:35;16.00;;;6.90;;
75016;SDS011;63577;39.766;2.720;2024-03-23T09:46:01;10.10;;;4.30;;
75016;SDS011;63577;39.766;2.720;2024-03-23T09:48:27;8.60;;;3.80;;
75016;SDS011;63577;39.766;2.720;2024-03-23T09:50:52;9.10;;;3.70;;
75016;SDS011;63577;39.766;2.720;2024-03-23T09:53:18;8.90;;;3.90;;
75016;SDS011;63577;39.766;2.720;2024-03-23T09:55:43;14.40;;;3.30;;
75016;SDS011;63577;39.766;2.720;2024-03-23T09:58:13;8.20;;;3.50;;
75016;SDS011;63577;39.766;2.720;2024-03-23T10:00:38;6.80;;;3.30;;
75016;SDS011;63577;39.766;2.720;2024-03-23T10:03:04;13.00;;;4.30;;
75016;SDS011;63577;39.766;2.720;2024-03-23T10:05:31;10.10;;;4.00;;
75016;SDS011;63577;39.766;2.720;2024-03-23T10:07:59;10.50;;;4.00;;
75016;SDS011;63577;39.766;2.720;2024-03-23T10:10:25;9.90;;;4.10;;
75016;SDS011;63577;39.766;2.720;2024-03-23T10:12:50;10.90;;;4.70;;
75016;SDS011;63577;39.766;2.720;2024-03-23T10:15:25;11.10;;;5.20;;
75016;SDS011;63577;39.766;2.720;2024-03-23T10:17:50;9.30;;;4.40;;
75016;SDS011;63577;39.766;2.720;2024-03-23T10:20:20;8.90;;;4.10;;
75016;SDS011;63577;39.766;2.720;2024-03-23T10:22:48;8.60;;;4.00;;
75016;SDS011;63577;39.766;2.720;2024-03-23T10:25:13;10.00;;;4.10;;
75016;SDS011;63577;39.766;2.720;2024-03-23T10:27:39;9.70;;;3.90;;
75016;SDS011;63577;39.766;2.720;2024-03-23T10:30:11;9.90;;;4.30;;
75016;SDS011;63577;39.766;2.720;2024-03-23T10:32:36;9.90;;;4.30;;
75016;SDS011;63577;39.766;2.720;2024-03-23T10:35:15;10.50;;;5.10;;
75016;SDS011;63577;39.766;2.720;2024-03-23T10:37:41;12.80;;;4.60;;
75016;SDS011;63577;39.766;2.720;2024-03-23T10:40:07;9.80;;;4.50;;
75016;SDS011;63577;39.766;2.720;2024-03-23T10:42:34;10.90;;;4.50;;
75016;SDS011;63577;39.766;2.720;2024-03-23T10:45:00;11.20;;;4.50;;
75016;SDS011;63577;39.766;2.720;2024-03-23T10:47:25;11.10;;;4.90;;
75016;SDS011;63577;39.766;2.720;2024-03-23T10:49:51;12.00;;;5.30;;
75016;SDS011;63577;39.766;2.720;2024-03-23T10:52:16;12.60;;;6.40;;
75016;SDS011;63577;39.766;2.720;2024-03-23T10:54:42;12.40;;;6.50;;
75016;SDS011;63577;39.766;2.720;2024-03-23T10:57:10;15.40;;;7.00;;
75016;SDS011;63577;39.766;2.720;2024-03-23T10:59:37;16.60;;;8.90;;
75016;SDS011;63577;39.766;2.720;2024-03-23T11:02:03;18.90;;;10.00;;
75016;SDS011;63577;39.766;2.720;2024-03-23T11:04:29;15.80;;;7.20;;
75016;SDS011;63577;39.766;2.720;2024-03-23T11:06:55;12.30;;;5.60;;
75016;SDS011;63577;39.766;2.720;2024-03-23T11:12:39;12.50;;;5.40;;
75016;SDS011;63577;39.766;2.720;2024-03-23T11:15:04;10.10;;;5.00;;
75016;SDS011;63577;39.766;2.720;2024-03-23T11:17:30;11.40;;;5.00;;
75016;SDS011;63577;39.766;2.720;2024-03-23T11:19:56;11.20;;;4.70;;
75016;SDS011;63577;39.766;2.720;2024-03-23T11:25:15;12.20;;;4.40;;
75016;SDS011;63577;39.766;2.720;2024-03-23T11:27:41;9.00;;;4.90;;
75016;SDS011;63577;39.766;2.720;2024-03-23T11:30:13;11.30;;;4.70;;
75016;SDS011;63577;39.766;2.720;2024-03-23T11:32:40;22.40;;;14.00;;
75016;SDS011;63577;39.766;2.720;2024-03-23T11:35:05;15.30;;;8.40;;
75016;SDS011;63577;39.766;2.720;2024-03-23T11:37:31;15.80;;;6.80;;
75016;SDS011;63577;39.766;2.720;2024-03-23T11:39:57;13.50;;;6.60;;
75016;SDS011;63577;39.766;2.720;2024-03-23T11:42:22;14.00;;;6.20;;
75016;SDS011;63577;39.766;2.720;2024-03-23T11:44:47;13.70;;;6.30;;
75016;SDS011;63577;39.766;2.720;2024-03-23T11:47:13;18.50;;;6.60;;
75016;SDS011;63577;39.766;2.720;2024-03-23T11:49:38;13.10;;;6.10;;
75016;SDS011;63577;39.766;2.720;2024-03-23T11:52:06;12.20;;;6.10;;
75016;SDS011;63577;39.766;2.720;2024-03-23T11:54:31;13.90;;;6.10;;
75016;SDS011;63577;39.766;2.720;2024-03-23T11:56:57;11.80;;;6.00;;
75016;SDS011;63577;39.766;2.720;2024-03-23T11:59:39;13.20;;;6.70;;
75016;SDS011;63577;39.766;2.720;2024-03-23T12:02:08;12.10;;;6.80;;
75016;SDS011;63577;39.766;2.720;2024-03-23T12:04:35;13.60;;;5.80;;
75016;SDS011;63577;39.766;2.720;2024-03-23T12:09:36;12.00;;;5.10;;
75016;SDS011;63577;39.766;2.720;2024-03-23T12:12:06;12.50;;;5.30;;
75016;SDS011;63577;39.766;2.720;2024-03-23T12:14:31;11.90;;;5.20;;
75016;SDS011;63577;39.766;2.720;2024-03-23T12:17:06;13.80;;;5.30;;
75016;SDS011;63577;39.766;2.720;2024-03-23T12:19:32;11.90;;;5.40;;
75016;SDS011;63577;39.766;2.720;2024-03-23T12:21:57;11.00;;;5.80;;
75016;SDS011;63577;39.766;2.720;2024-03-23T12:24:23;11.20;;;4.90;;
75016;SDS011;63577;39.766;2.720;2024-03-23T12:26:48;11.50;;;5.10;;
75016;SDS011;63577;39.766;2.720;2024-03-23T12:29:15;12.00;;;5.60;;
75016;SDS011;63577;39.766;2.720;2024-03-23T12:31:41;12.00;;;4.90;;
75016;SDS011;63577;39.766;2.720;2024-03-23T12:34:06;8.80;;;5.00;;
75016;SDS011;63577;39.766;2.720;2024-03-23T12:36:31;9.50;;;3.60;;
75016;SDS011;63577;39.766;2.720;2024-03-23T12:38:57;14.00;;;5.40;;
75016;SDS011;63577;39.766;2.720;2024-03-23T12:41:22;8.70;;;3.40;;
75016;SDS011;63577;39.766;2.720;2024-03-23T12:43:48;11.40;;;4.70;;
75016;SDS011;63577;39.766;2.720;2024-03-23T12:46:14;8.90;;;2.90;;
75016;SDS011;63577;39.766;2.720;2024-03-23T12:48:39;9.20;;;3.10;;
75016;SDS011;63577;39.766;2.720;2024-03-23T12:51:07;9.60;;;3.10;;
75016;SDS011;63577;39.766;2.720;2024-03-23T12:53:32;8.60;;;2.80;;
75016;SDS011;63577;39.766;2.720;2024-03-23T12:55:57;12.60;;;3.20;;
75016;SDS011;63577;39.766;2.720;2024-03-23T12:58:23;8.60;;;3.10;;
75016;SDS011;63577;39.766;2.720;2024-03-23T13:00:49;10.60;;;3.30;;
75016;SDS011;63577;39.766;2.720;2024-03-23T13:03:14;9.00;;;3.10;;
75016;SDS011;63577;39.766;2.720;2024-03-23T13:05:40;10.90;;;3.30;;
75016;SDS011;63577;39.766;2.720;2024-03-23T13:08:06;9.70;;;3.00;;
75016;SDS011;63577;39.766;2.720;2024-03-23T13:10:32;10.50;;;3.10;;
75016;SDS011;63577;39.766;2.720;2024-03-23T13:12:58;9.40;;;3.10;;
75016;SDS011;63577;39.766;2.720;2024-03-23T13:15:23;12.60;;;3.10;;
75016;SDS011;63577;39.766;2.720;2024-03-23T13:17:48;14.10;;;3.00;;
75016;SDS011;63577;39.766;2.720;2024-03-23T13:20:14;13.50;;;3.10;;
75016;SDS011;63577;39.766;2.720;2024-03-23T13:22:40;9.20;;;2.80;;
75016;SDS011;63577;39.766;2.720;2024-03-23T13:25:06;12.20;;;3.20;;
75016;SDS011;63577;39.766;2.720;2024-03-23T13:27:31;9.50;;;2.60;;
75016;SDS011;63577;39.766;2.720;2024-03-23T13:29:57;11.60;;;2.90;;
75016;SDS011;63577;39.766;2.720;2024-03-23T13:32:22;10.40;;;3.30;;
75016;SDS011;63577;39.766;2.720;2024-03-23T13:34:48;10.00;;;2.70;;
75016;SDS011;63577;39.766;2.720;2024-03-23T13:37:15;11.60;;;2.90;;
75016;SDS011;63577;39.766;2.720;2024-03-23T13:39:41;9.90;;;2.90;;
75016;SDS011;63577;39.766;2.720;2024-03-23T13:42:09;10.90;;;2.80;;
75016;SDS011;63577;39.766;2.720;2024-03-23T13:44:35;10.30;;;3.20;;
75016;SDS011;63577;39.766;2.720;2024-03-23T13:47:01;8.30;;;3.20;;
75016;SDS011;63577;39.766;2.720;2024-03-23T13:49:27;12.60;;;2.80;;
75016;SDS011;63577;39.766;2.720;2024-03-23T13:51:54;9.70;;;3.00;;
75016;SDS011;63577;39.766;2.720;2024-03-23T13:54:20;10.70;;;2.70;;
75016;SDS011;63577;39.766;2.720;2024-03-23T13:56:47;10.70;;;3.20;;
75016;SDS011;63577;39.766;2.720;2024-03-23T13:59:12;11.10;;;2.90;;
75016;SDS011;63577;39.766;2.720;2024-03-23T14:01:38;10.90;;;3.70;;
75016;SDS011;63577;39.766;2.720;2024-03-23T14:04:03;10.40;;;3.00;;
75016;SDS011;63577;39.766;2.720;2024-03-23T14:06:29;12.40;;;3.00;;
75016;SDS011;63577;39.766;2.720;2024-03-23T14:08:54;11.40;;;2.80;;
75016;SDS011;63577;39.766;2.720;2024-03-23T14:11:19;9.30;;;2.70;;
75016;SDS011;63577;39.766;2.720;2024-03-23T14:13:45;12.70;;;2.70;;
75016;SDS011;63577;39.766;2.720;2024-03-23T14:16:10;11.90;;;2.60;;
75016;SDS011;63577;39.766;2.720;2024-03-23T14:18:35;7.60;;;2.70;;
75016;SDS011;63577;39.766;2.720;2024-03-23T14:21:01;9.50;;;2.30;;
75016;SDS011;63577;39.766;2.720;2024-03-23T14:23:28;9.40;;;2.60;;
75016;SDS011;63577;39.766;2.720;2024-03-23T14:25:57;8.40;;;2.20;;
75016;SDS011;63577;39.766;2.720;2024-03-23T14:28:22;8.00;;;2.70;;
75016;SDS011;63577;39.766;2.720;2024-03-23T14:30:49;10.40;;;2.80;;
75016;SDS011;63577;39.766;2.720;2024-03-23T14:33:15;7.40;;;2.60;;
75016;SDS011;63577;39.766;2.720;2024-03-23T14:35:41;8.50;;;2.30;;
75016;SDS011;63577;39.766;2.720;2024-03-23T14:38:06;10.20;;;2.60;;
75016;SDS011;63577;39.766;2.720;2024-03-23T14:40:32;7.80;;;2.40;;
75016;SDS011;63577;39.766;2.720;2024-03-23T14:42:57;7.20;;;2.30;;
75016;SDS011;63577;39.766;2.720;2024-03-23T14:45:23;8.20;;;2.50;;
75016;SDS011;63577;39.766;2.720;2024-03-23T14:47:50;9.70;;;2.70;;
75016;SDS011;63577;39.766;2.720;2024-03-23T14:50:15;7.00;;;2.60;;
75016;SDS011;63577;39.766;2.720;2024-03-23T14:52:42;8.50;;;2.50;;
75016;SDS011;63577;39.766;2.720;2024-03-23T14:55:07;7.30;;;2.50;;
75016;SDS011;63577;39.766;2.720;2024-03-23T14:57:34;7.90;;;2.30;;
75016;SDS011;63577;39.766;2.720;2024-03-23T15:00:00;9.30;;;2.50;;
75016;SDS011;63577;39.766;2.720;2024-03-23T15:02:25;8.40;;;2.60;;
75016;SDS011;63577;39.766;2.720;2024-03-23T15:04:52;9.20;;;2.90;;
75016;SDS011;63577;39.766;2.720;2024-03-23T15:07:19;11.40;;;2.60;;
75016;SDS011;63577;39.766;2.720;2024-03-23T15:09:44;8.40;;;2.70;;
75016;SDS011;63577;39.766;2.720;2024-03-23T15:12:10;8.20;;;2.70;;
75016;SDS011;63577;39.766;2.720;2024-03-23T15:14:35;10.30;;;3.00;;
75016;SDS011;63577;39.766;2.720;2024-03-23T15:17:01;10.10;;;3.20;;
75016;SDS011;63577;39.766;2.720;2024-03-23T15:19:29;10.40;;;3.30;;
75016;SDS011;63577;39.766;2.720;2024-03-23T15:21:55;7.90;;;3.60;;
75016;SDS011;63577;39.766;2.720;2024-03-23T15:24:21;9.00;;;3.10;;
75016;SDS011;63577;39.766;2.720;2024-03-23T15:26:47;6.90;;;3.10;;
75016;SDS011;63577;39.766;2.720;2024-03-23T15:29:14;7.60;;;3.70;;
75016;SDS011;63577;39.766;2.720;2024-03-23T15:31:42;8.60;;;3.50;;
75016;SDS011;63577;39.766;2.720;2024-03-23T15:34:08;10.10;;;3.10;;
75016;SDS011;63577;39.766;2.720;2024-03-23T15:36:36;6.80;;;3.10;;
75016;SDS011;63577;39.766;2.720;2024-03-23T15:39:03;10.80;;;3.90;;